sensor_id;sensor_type;location;lat;lon;timestamp;P1;durP1;ratioP1;P2;durP2;ratioP2
45905;SDS011;31619;49.008;12.106;2023-02-21T00:01:56;2.72;;;2.47;;
45905;SDS011;31619;49.008;12.106;2023-02-21T00:04:40;4.35;;;2.30;;
45905;SDS011;31619;49.008;12.106;2023-02-21T00:07:24;3.85;;;2.28;;
45905;SDS011;31619;49.008;12.106;2023-02-21T00:10:10;6.47;;;2.60;;
45905;SDS011;31619;49.008;12.106;2023-02-21T00:12:56;3.47;;;2.30;;
45905;SDS011;31619;49.008;12.106;2023-02-21T00:15:40;4.80;;;2.45;;
45905;SDS011;31619;49.008;12.106;2023-02-21T00:18:24;2.90;;;2.05;;
45905;SDS011;31619;49.008;12.106;2023-02-21T00:21:08;3.47;;;1.90;;
45905;SDS011;31619;49.008;12.106;2023-02-21T00:23:52;3.13;;;2.45;;
45905;SDS011;31619;49.008;12.106;2023-02-21T00:26:37;3.03;;;2.47;;
45905;SDS011;31619;49.008;12.106;2023-02-21T00:29:21;2.95;;;2.22;;
45905;SDS011;31619;49.008;12.106;2023-02-21T00:32:05;3.60;;;2.42;;
45905;SDS011;31619;49.008;12.106;2023-02-21T00:34:49;3.42;;;2.15;;
45905;SDS011;31619;49.008;12.106;2023-02-21T00:37:33;3.65;;;2.50;;
45905;SDS011;31619;49.008;12.106;2023-02-21T00:40:17;3.03;;;2.47;;
45905;SDS011;31619;49.008;12.106;2023-02-21T00:43:02;3.33;;;2.38;;
45905;SDS011;31619;49.008;12.106;2023-02-21T00:45:46;2.28;;;2.03;;
45905;SDS011;31619;49.008;12.106;2023-02-21T00:48:30;5.13;;;2.50;;
45905;SDS011;31619;49.008;12.106;2023-02-21T00:51:14;2.47;;;2.35;;
45905;SDS011;31619;49.008;12.106;2023-02-21T00:53:59;3.90;;;2.85;;
45905;SDS011;31619;49.008;12.106;2023-02-21T00:56:43;3.47;;;2.25;;
45905;SDS011;31619;49.008;12.106;2023-02-21T00:59:28;2.55;;;2.08;;
45905;SDS011;31619;49.008;12.106;2023-02-21T01:02:12;3.08;;;2.47;;
45905;SDS011;31619;49.008;12.106;2023-02-21T01:04:57;3.67;;;2.17;;
45905;SDS011;31619;49.008;12.106;2023-02-21T01:07:41;3.85;;;3.13;;
45905;SDS011;31619;49.008;12.106;2023-02-21T01:10:25;3.75;;;2.83;;
45905;SDS011;31619;49.008;12.106;2023-02-21T01:13:09;3.13;;;2.88;;
45905;SDS011;31619;49.008;12.106;2023-02-21T01:15:54;3.78;;;2.25;;
45905;SDS011;31619;49.008;12.106;2023-02-21T01:18:38;3.22;;;2.47;;
45905;SDS011;31619;49.008;12.106;2023-02-21T01:21:22;2.58;;;2.38;;
45905;SDS011;31619;49.008;12.106;2023-02-21T01:24:08;3.20;;;2.97;;
45905;SDS011;31619;49.008;12.106;2023-02-21T01:26:54;3.08;;;2.42;;
45905;SDS011;31619;49.008;12.106;2023-02-21T01:29:39;3.17;;;2.80;;
45905;SDS011;31619;49.008;12.106;2023-02-21T01:32:23;2.83;;;2.60;;
45905;SDS011;31619;49.008;12.106;2023-02-21T01:35:07;2.97;;;2.75;;
45905;SDS011;31619;49.008;12.106;2023-02-21T01:37:51;2.65;;;2.42;;
45905;SDS011;31619;49.008;12.106;2023-02-21T01:40:38;5.80;;;2.88;;
45905;SDS011;31619;49.008;12.106;2023-02-21T01:43:23;4.22;;;2.72;;
45905;SDS011;31619;49.008;12.106;2023-02-21T01:46:11;2.53;;;2.25;;
45905;SDS011;31619;49.008;12.106;2023-02-21T01:48:56;4.38;;;2.80;;
45905;SDS011;31619;49.008;12.106;2023-02-21T01:51:42;3.88;;;2.60;;
45905;SDS011;31619;49.008;12.106;2023-02-21T01:54:29;4.00;;;2.85;;
45905;SDS011;31619;49.008;12.106;2023-02-21T01:57:15;3.45;;;2.65;;
45905;SDS011;31619;49.008;12.106;2023-02-21T02:00:02;2.38;;;2.17;;
45905;SDS011;31619;49.008;12.106;2023-02-21T02:02:51;3.15;;;2.70;;
45905;SDS011;31619;49.008;12.106;2023-02-21T02:05:46;3.22;;;2.55;;
45905;SDS011;31619;49.008;12.106;2023-02-21T02:08:33;5.63;;;3.22;;
45905;SDS011;31619;49.008;12.106;2023-02-21T02:14:06;2.50;;;2.30;;
45905;SDS011;31619;49.008;12.106;2023-02-21T02:16:57;2.60;;;2.40;;
45905;SDS011;31619;49.008;12.106;2023-02-21T02:23:04;2.90;;;2.70;;
45905;SDS011;31619;49.008;12.106;2023-02-21T02:35:51;3.92;;;2.40;;
45905;SDS011;31619;49.008;12.106;2023-02-21T02:38:25;3.28;;;2.97;;
45905;SDS011;31619;49.008;12.106;2023-02-21T02:41:05;4.60;;;3.00;;
45905;SDS011;31619;49.008;12.106;2023-02-21T02:43:34;6.00;;;2.90;;
45905;SDS011;31619;49.008;12.106;2023-02-21T02:46:16;2.78;;;2.42;;
45905;SDS011;31619;49.008;12.106;2023-02-21T02:51:24;4.22;;;2.67;;
45905;SDS011;31619;49.008;12.106;2023-02-21T02:53:50;2.80;;;2.60;;
45905;SDS011;31619;49.008;12.106;2023-02-21T02:56:16;2.38;;;2.17;;
45905;SDS011;31619;49.008;12.106;2023-02-21T02:58:46;4.18;;;3.13;;
45905;SDS011;31619;49.008;12.106;2023-02-21T03:03:48;4.75;;;3.15;;
45905;SDS011;31619;49.008;12.106;2023-02-21T03:09:01;3.42;;;2.65;;
45905;SDS011;31619;49.008;12.106;2023-02-21T03:12:00;3.88;;;2.95;;
45905;SDS011;31619;49.008;12.106;2023-02-21T03:14:34;2.95;;;2.50;;
45905;SDS011;31619;49.008;12.106;2023-02-21T03:17:10;3.40;;;2.60;;
45905;SDS011;31619;49.008;12.106;2023-02-21T03:19:43;4.72;;;2.38;;
45905;SDS011;31619;49.008;12.106;2023-02-21T03:22:14;3.13;;;2.70;;
45905;SDS011;31619;49.008;12.106;2023-02-21T03:24:44;3.67;;;2.95;;
45905;SDS011;31619;49.008;12.106;2023-02-21T03:27:12;4.05;;;2.97;;
45905;SDS011;31619;49.008;12.106;2023-02-21T03:29:38;4.55;;;3.20;;
45905;SDS011;31619;49.008;12.106;2023-02-21T03:32:10;3.47;;;2.83;;
45905;SDS011;31619;49.008;12.106;2023-02-21T03:34:40;4.68;;;3.15;;
45905;SDS011;31619;49.008;12.106;2023-02-21T03:37:08;3.88;;;2.90;;
45905;SDS011;31619;49.008;12.106;2023-02-21T03:39:41;3.88;;;3.35;;
45905;SDS011;31619;49.008;12.106;2023-02-21T03:42:07;3.25;;;2.85;;
45905;SDS011;31619;49.008;12.106;2023-02-21T03:44:33;2.95;;;2.60;;
45905;SDS011;31619;49.008;12.106;2023-02-21T03:46:58;2.65;;;2.45;;
45905;SDS011;31619;49.008;12.106;2023-02-21T03:49:24;3.53;;;3.20;;
45905;SDS011;31619;49.008;12.106;2023-02-21T03:51:49;3.80;;;3.50;;
45905;SDS011;31619;49.008;12.106;2023-02-21T03:54:15;3.50;;;3.30;;
45905;SDS011;31619;49.008;12.106;2023-02-21T03:56:41;3.80;;;3.40;;
45905;SDS011;31619;49.008;12.106;2023-02-21T03:59:06;7.32;;;3.53;;
45905;SDS011;31619;49.008;12.106;2023-02-21T04:01:32;3.75;;;3.42;;
45905;SDS011;31619;49.008;12.106;2023-02-21T04:03:57;3.35;;;3.13;;
45905;SDS011;31619;49.008;12.106;2023-02-21T04:06:23;3.97;;;3.17;;
45905;SDS011;31619;49.008;12.106;2023-02-21T04:08:48;3.40;;;3.17;;
45905;SDS011;31619;49.008;12.106;2023-02-21T04:11:17;3.22;;;2.90;;
45905;SDS011;31619;49.008;12.106;2023-02-21T04:13:45;5.40;;;3.10;;
45905;SDS011;31619;49.008;12.106;2023-02-21T04:16:10;7.03;;;3.40;;
45905;SDS011;31619;49.008;12.106;2023-02-21T04:18:36;5.60;;;3.53;;
45905;SDS011;31619;49.008;12.106;2023-02-21T04:21:01;4.90;;;3.97;;
45905;SDS011;31619;49.008;12.106;2023-02-21T04:23:27;5.32;;;3.65;;
45905;SDS011;31619;49.008;12.106;2023-02-21T04:25:53;5.88;;;4.07;;
45905;SDS011;31619;49.008;12.106;2023-02-21T04:28:18;6.07;;;4.68;;
45905;SDS011;31619;49.008;12.106;2023-02-21T04:30:44;5.53;;;4.93;;
45905;SDS011;31619;49.008;12.106;2023-02-21T04:33:10;6.38;;;5.10;;
45905;SDS011;31619;49.008;12.106;2023-02-21T04:35:35;7.28;;;5.05;;
45905;SDS011;31619;49.008;12.106;2023-02-21T04:38:01;5.88;;;4.78;;
45905;SDS011;31619;49.008;12.106;2023-02-21T04:40:26;3.67;;;3.38;;
45905;SDS011;31619;49.008;12.106;2023-02-21T04:42:52;5.47;;;4.10;;
45905;SDS011;31619;49.008;12.106;2023-02-21T04:45:18;6.63;;;4.88;;
45905;SDS011;31619;49.008;12.106;2023-02-21T04:47:43;6.90;;;4.32;;
45905;SDS011;31619;49.008;12.106;2023-02-21T04:50:09;6.13;;;4.20;;
45905;SDS011;31619;49.008;12.106;2023-02-21T04:52:34;4.90;;;3.85;;
45905;SDS011;31619;49.008;12.106;2023-02-21T04:55:00;7.72;;;4.28;;
45905;SDS011;31619;49.008;12.106;2023-02-21T04:57:26;5.63;;;3.65;;
45905;SDS011;31619;49.008;12.106;2023-02-21T04:59:58;5.07;;;3.38;;
45905;SDS011;31619;49.008;12.106;2023-02-21T05:02:25;4.38;;;3.45;;
45905;SDS011;31619;49.008;12.106;2023-02-21T05:04:51;3.88;;;3.05;;
45905;SDS011;31619;49.008;12.106;2023-02-21T05:07:16;3.92;;;3.40;;
45905;SDS011;31619;49.008;12.106;2023-02-21T05:09:42;6.03;;;3.90;;
45905;SDS011;31619;49.008;12.106;2023-02-21T05:12:07;3.97;;;3.58;;
45905;SDS011;31619;49.008;12.106;2023-02-21T05:14:39;5.20;;;3.50;;
45905;SDS011;31619;49.008;12.106;2023-02-21T05:17:05;4.10;;;3.22;;
45905;SDS011;31619;49.008;12.106;2023-02-21T05:19:31;3.45;;;3.15;;
45905;SDS011;31619;49.008;12.106;2023-02-21T05:21:59;5.40;;;3.63;;
45905;SDS011;31619;49.008;12.106;2023-02-21T05:24:26;3.75;;;3.45;;
45905;SDS011;31619;49.008;12.106;2023-02-21T05:26:53;4.78;;;3.47;;
45905;SDS011;31619;49.008;12.106;2023-02-21T05:29:19;5.60;;;3.90;;
45905;SDS011;31619;49.008;12.106;2023-02-21T05:31:45;3.97;;;3.60;;
45905;SDS011;31619;49.008;12.106;2023-02-21T05:34:11;4.68;;;3.50;;
45905;SDS011;31619;49.008;12.106;2023-02-21T05:36:38;5.80;;;3.80;;
45905;SDS011;31619;49.008;12.106;2023-02-21T05:39:04;5.43;;;3.90;;
45905;SDS011;31619;49.008;12.106;2023-02-21T05:41:31;6.65;;;3.95;;
45905;SDS011;31619;49.008;12.106;2023-02-21T05:43:58;6.53;;;3.58;;
45905;SDS011;31619;49.008;12.106;2023-02-21T05:46:28;5.90;;;3.78;;
45905;SDS011;31619;49.008;12.106;2023-02-21T05:48:56;4.75;;;3.97;;
45905;SDS011;31619;49.008;12.106;2023-02-21T05:51:23;4.60;;;4.13;;
45905;SDS011;31619;49.008;12.106;2023-02-21T05:53:49;6.07;;;3.65;;
45905;SDS011;31619;49.008;12.106;2023-02-21T05:56:15;5.03;;;4.28;;
45905;SDS011;31619;49.008;12.106;2023-02-21T05:58:41;5.15;;;3.40;;
45905;SDS011;31619;49.008;12.106;2023-02-21T06:01:06;5.82;;;4.10;;
45905;SDS011;31619;49.008;12.106;2023-02-21T06:03:32;5.82;;;3.78;;
45905;SDS011;31619;49.008;12.106;2023-02-21T06:05:58;5.85;;;4.63;;
45905;SDS011;31619;49.008;12.106;2023-02-21T06:08:24;5.90;;;4.32;;
45905;SDS011;31619;49.008;12.106;2023-02-21T06:10:50;4.85;;;4.25;;
45905;SDS011;31619;49.008;12.106;2023-02-21T06:13:15;7.22;;;4.63;;
45905;SDS011;31619;49.008;12.106;2023-02-21T06:15:41;8.63;;;4.00;;
45905;SDS011;31619;49.008;12.106;2023-02-21T06:18:07;8.18;;;4.65;;
45905;SDS011;31619;49.008;12.106;2023-02-21T06:20:32;5.15;;;4.20;;
45905;SDS011;31619;49.008;12.106;2023-02-21T06:22:58;11.90;;;4.40;;
45905;SDS011;31619;49.008;12.106;2023-02-21T06:25:24;9.45;;;4.03;;
45905;SDS011;31619;49.008;12.106;2023-02-21T06:27:49;7.15;;;4.35;;
45905;SDS011;31619;49.008;12.106;2023-02-21T06:30:15;6.65;;;4.47;;
45905;SDS011;31619;49.008;12.106;2023-02-21T06:32:41;8.48;;;5.10;;
45905;SDS011;31619;49.008;12.106;2023-02-21T06:35:07;6.30;;;4.20;;
45905;SDS011;31619;49.008;12.106;2023-02-21T06:37:33;5.10;;;4.65;;
45905;SDS011;31619;49.008;12.106;2023-02-21T06:39:58;8.13;;;4.15;;
45905;SDS011;31619;49.008;12.106;2023-02-21T06:42:24;10.93;;;4.88;;
45905;SDS011;31619;49.008;12.106;2023-02-21T06:44:50;6.13;;;4.25;;
45905;SDS011;31619;49.008;12.106;2023-02-21T06:47:16;8.05;;;4.00;;
45905;SDS011;31619;49.008;12.106;2023-02-21T06:49:42;4.60;;;4.15;;
45905;SDS011;31619;49.008;12.106;2023-02-21T06:52:07;5.90;;;4.60;;
45905;SDS011;31619;49.008;12.106;2023-02-21T06:54:33;6.40;;;4.50;;
45905;SDS011;31619;49.008;12.106;2023-02-21T06:56:59;6.53;;;4.60;;
45905;SDS011;31619;49.008;12.106;2023-02-21T06:59:25;7.95;;;4.95;;
45905;SDS011;31619;49.008;12.106;2023-02-21T07:01:52;10.15;;;5.88;;
45905;SDS011;31619;49.008;12.106;2023-02-21T07:04:18;5.53;;;4.60;;
45905;SDS011;31619;49.008;12.106;2023-02-21T07:06:43;6.22;;;4.72;;
45905;SDS011;31619;49.008;12.106;2023-02-21T07:09:09;5.85;;;5.15;;
45905;SDS011;31619;49.008;12.106;2023-02-21T07:11:34;7.72;;;4.80;;
45905;SDS011;31619;49.008;12.106;2023-02-21T07:14:00;4.60;;;4.20;;
45905;SDS011;31619;49.008;12.106;2023-02-21T07:16:26;7.97;;;5.00;;
45905;SDS011;31619;49.008;12.106;2023-02-21T07:18:52;9.32;;;5.43;;
45905;SDS011;31619;49.008;12.106;2023-02-21T07:21:18;7.22;;;4.97;;
45905;SDS011;31619;49.008;12.106;2023-02-21T07:23:45;9.00;;;5.55;;
45905;SDS011;31619;49.008;12.106;2023-02-21T07:26:11;6.45;;;4.93;;
45905;SDS011;31619;49.008;12.106;2023-02-21T07:28:37;6.03;;;3.85;;
45905;SDS011;31619;49.008;12.106;2023-02-21T07:31:03;4.20;;;3.75;;
45905;SDS011;31619;49.008;12.106;2023-02-21T07:33:29;4.05;;;3.15;;
45905;SDS011;31619;49.008;12.106;2023-02-21T07:35:54;4.55;;;3.63;;
45905;SDS011;31619;49.008;12.106;2023-02-21T07:38:21;4.07;;;3.38;;
45905;SDS011;31619;49.008;12.106;2023-02-21T07:40:54;5.13;;;3.47;;
45905;SDS011;31619;49.008;12.106;2023-02-21T07:43:23;4.97;;;3.50;;
45905;SDS011;31619;49.008;12.106;2023-02-21T07:45:50;7.05;;;3.88;;
45905;SDS011;31619;49.008;12.106;2023-02-21T07:48:16;4.03;;;3.63;;
45905;SDS011;31619;49.008;12.106;2023-02-21T07:50:42;4.45;;;3.90;;
45905;SDS011;31619;49.008;12.106;2023-02-21T07:53:08;5.13;;;3.80;;
45905;SDS011;31619;49.008;12.106;2023-02-21T07:55:34;6.97;;;3.25;;
45905;SDS011;31619;49.008;12.106;2023-02-21T07:58:00;3.40;;;3.10;;
45905;SDS011;31619;49.008;12.106;2023-02-21T08:00:26;4.22;;;3.70;;
45905;SDS011;31619;49.008;12.106;2023-02-21T08:02:51;4.15;;;3.75;;
45905;SDS011;31619;49.008;12.106;2023-02-21T08:05:17;4.68;;;3.70;;
45905;SDS011;31619;49.008;12.106;2023-02-21T08:07:44;4.90;;;3.75;;
45905;SDS011;31619;49.008;12.106;2023-02-21T08:10:11;4.70;;;3.78;;
45905;SDS011;31619;49.008;12.106;2023-02-21T08:12:42;5.45;;;3.80;;
45905;SDS011;31619;49.008;12.106;2023-02-21T08:15:08;9.65;;;4.40;;
45905;SDS011;31619;49.008;12.106;2023-02-21T08:17:33;11.05;;;4.65;;
45905;SDS011;31619;49.008;12.106;2023-02-21T08:19:59;12.23;;;4.30;;
45905;SDS011;31619;49.008;12.106;2023-02-21T08:22:25;11.25;;;4.32;;
45905;SDS011;31619;49.008;12.106;2023-02-21T08:24:50;6.25;;;4.00;;
45905;SDS011;31619;49.008;12.106;2023-02-21T08:27:16;14.73;;;4.53;;
45905;SDS011;31619;49.008;12.106;2023-02-21T08:29:42;7.05;;;4.20;;
45905;SDS011;31619;49.008;12.106;2023-02-21T08:32:08;5.05;;;3.20;;
45905;SDS011;31619;49.008;12.106;2023-02-21T08:34:34;7.57;;;4.30;;
45905;SDS011;31619;49.008;12.106;2023-02-21T08:37:00;7.32;;;4.70;;
45905;SDS011;31619;49.008;12.106;2023-02-21T08:39:25;5.90;;;4.38;;
45905;SDS011;31619;49.008;12.106;2023-02-21T08:41:54;3.90;;;3.60;;
45905;SDS011;31619;49.008;12.106;2023-02-21T08:44:20;5.90;;;3.92;;
45905;SDS011;31619;49.008;12.106;2023-02-21T08:46:46;5.03;;;4.15;;
45905;SDS011;31619;49.008;12.106;2023-02-21T08:49:12;4.97;;;4.50;;
45905;SDS011;31619;49.008;12.106;2023-02-21T08:51:38;6.00;;;4.20;;
45905;SDS011;31619;49.008;12.106;2023-02-21T08:54:04;7.97;;;4.80;;
45905;SDS011;31619;49.008;12.106;2023-02-21T08:56:31;4.22;;;3.70;;
45905;SDS011;31619;49.008;12.106;2023-02-21T08:58:58;5.15;;;3.67;;
45905;SDS011;31619;49.008;12.106;2023-02-21T09:01:28;11.98;;;3.75;;
45905;SDS011;31619;49.008;12.106;2023-02-21T09:03:56;3.90;;;3.15;;
45905;SDS011;31619;49.008;12.106;2023-02-21T09:06:22;5.93;;;4.75;;
45905;SDS011;31619;49.008;12.106;2023-02-21T09:08:47;8.02;;;3.47;;
45905;SDS011;31619;49.008;12.106;2023-02-21T09:11:13;5.10;;;3.83;;
45905;SDS011;31619;49.008;12.106;2023-02-21T09:13:38;5.25;;;3.83;;
45905;SDS011;31619;49.008;12.106;2023-02-21T09:16:05;4.75;;;3.85;;
45905;SDS011;31619;49.008;12.106;2023-02-21T09:18:31;5.00;;;4.05;;
45905;SDS011;31619;49.008;12.106;2023-02-21T09:20:56;4.90;;;4.00;;
45905;SDS011;31619;49.008;12.106;2023-02-21T09:23:24;4.53;;;3.67;;
45905;SDS011;31619;49.008;12.106;2023-02-21T09:25:51;4.03;;;3.42;;
45905;SDS011;31619;49.008;12.106;2023-02-21T09:28:17;5.47;;;3.72;;
45905;SDS011;31619;49.008;12.106;2023-02-21T09:30:43;5.25;;;3.90;;
45905;SDS011;31619;49.008;12.106;2023-02-21T09:33:09;8.27;;;4.43;;
45905;SDS011;31619;49.008;12.106;2023-02-21T09:35:36;5.63;;;4.65;;
45905;SDS011;31619;49.008;12.106;2023-02-21T09:38:02;3.38;;;3.08;;
45905;SDS011;31619;49.008;12.106;2023-02-21T09:40:43;5.03;;;3.50;;
45905;SDS011;31619;49.008;12.106;2023-02-21T09:43:13;3.50;;;3.20;;
45905;SDS011;31619;49.008;12.106;2023-02-21T09:45:45;3.35;;;3.03;;
45905;SDS011;31619;49.008;12.106;2023-02-21T09:48:16;4.13;;;2.17;;
45905;SDS011;31619;49.008;12.106;2023-02-21T09:50:45;4.18;;;3.17;;
45905;SDS011;31619;49.008;12.106;2023-02-21T09:53:13;3.95;;;3.30;;
45905;SDS011;31619;49.008;12.106;2023-02-21T09:55:43;5.85;;;4.30;;
45905;SDS011;31619;49.008;12.106;2023-02-21T09:58:11;4.28;;;3.97;;
45905;SDS011;31619;49.008;12.106;2023-02-21T10:00:38;3.60;;;3.30;;
45905;SDS011;31619;49.008;12.106;2023-02-21T10:03:09;6.07;;;3.00;;
45905;SDS011;31619;49.008;12.106;2023-02-21T10:06:07;3.90;;;3.53;;
45905;SDS011;31619;49.008;12.106;2023-02-21T10:08:52;4.50;;;3.58;;
45905;SDS011;31619;49.008;12.106;2023-02-21T10:17:24;4.70;;;3.58;;
45905;SDS011;31619;49.008;12.106;2023-02-21T10:19:58;6.60;;;3.95;;
45905;SDS011;31619;49.008;12.106;2023-02-21T10:22:30;6.28;;;3.97;;
45905;SDS011;31619;49.008;12.106;2023-02-21T10:24:59;4.93;;;3.72;;
45905;SDS011;31619;49.008;12.106;2023-02-21T10:27:26;6.35;;;4.30;;
45905;SDS011;31619;49.008;12.106;2023-02-21T10:32:34;4.47;;;3.97;;
45905;SDS011;31619;49.008;12.106;2023-02-21T10:35:00;6.35;;;3.30;;
45905;SDS011;31619;49.008;12.106;2023-02-21T10:37:35;3.85;;;3.40;;
45905;SDS011;31619;49.008;12.106;2023-02-21T10:45:29;4.70;;;3.38;;
45905;SDS011;31619;49.008;12.106;2023-02-21T10:48:04;3.83;;;3.35;;
45905;SDS011;31619;49.008;12.106;2023-02-21T10:50:35;3.03;;;2.70;;
45905;SDS011;31619;49.008;12.106;2023-02-21T10:53:04;4.93;;;3.83;;
45905;SDS011;31619;49.008;12.106;2023-02-21T10:55:31;3.83;;;3.28;;
45905;SDS011;31619;49.008;12.106;2023-02-21T10:57:56;3.83;;;3.53;;
45905;SDS011;31619;49.008;12.106;2023-02-21T11:00:34;3.97;;;3.45;;
45905;SDS011;31619;49.008;12.106;2023-02-21T11:03:06;3.30;;;3.00;;
45905;SDS011;31619;49.008;12.106;2023-02-21T11:05:54;3.22;;;2.60;;
45905;SDS011;31619;49.008;12.106;2023-02-21T11:08:33;6.38;;;3.17;;
45905;SDS011;31619;49.008;12.106;2023-02-21T11:11:03;3.40;;;3.00;;
45905;SDS011;31619;49.008;12.106;2023-02-21T11:13:29;3.53;;;3.13;;
45905;SDS011;31619;49.008;12.106;2023-02-21T11:16:11;3.42;;;3.13;;
45905;SDS011;31619;49.008;12.106;2023-02-21T11:18:40;4.35;;;2.97;;
45905;SDS011;31619;49.008;12.106;2023-02-21T11:21:13;3.25;;;2.92;;
45905;SDS011;31619;49.008;12.106;2023-02-21T11:26:35;4.90;;;3.33;;
45905;SDS011;31619;49.008;12.106;2023-02-21T11:29:08;6.22;;;4.13;;
45905;SDS011;31619;49.008;12.106;2023-02-21T11:31:37;3.53;;;3.22;;
45905;SDS011;31619;49.008;12.106;2023-02-21T11:34:04;3.40;;;3.10;;
45905;SDS011;31619;49.008;12.106;2023-02-21T11:36:32;5.60;;;3.15;;
45905;SDS011;31619;49.008;12.106;2023-02-21T11:39:22;2.80;;;2.60;;
45905;SDS011;31619;49.008;12.106;2023-02-21T11:41:56;2.70;;;2.50;;
45905;SDS011;31619;49.008;12.106;2023-02-21T11:52:07;2.83;;;2.63;;
45905;SDS011;31619;49.008;12.106;2023-02-21T11:54:36;3.50;;;2.90;;
45905;SDS011;31619;49.008;12.106;2023-02-21T12:03:21;3.03;;;2.83;;
45905;SDS011;31619;49.008;12.106;2023-02-21T12:06:22;3.60;;;2.95;;
45905;SDS011;31619;49.008;12.106;2023-02-21T12:11:43;3.17;;;2.97;;
45905;SDS011;31619;49.008;12.106;2023-02-21T12:17:11;3.15;;;2.85;;
45905;SDS011;31619;49.008;12.106;2023-02-21T12:22:54;3.45;;;2.45;;
45905;SDS011;31619;49.008;12.106;2023-02-21T12:34:09;2.85;;;2.30;;
45905;SDS011;31619;49.008;12.106;2023-02-21T12:37:04;2.60;;;2.30;;
45905;SDS011;31619;49.008;12.106;2023-02-21T12:39:49;2.33;;;2.13;;
45905;SDS011;31619;49.008;12.106;2023-02-21T12:45:03;2.17;;;1.88;;
45905;SDS011;31619;49.008;12.106;2023-02-21T12:47:51;2.42;;;2.20;;
45905;SDS011;31619;49.008;12.106;2023-02-21T12:50:40;2.15;;;2.05;;
45905;SDS011;31619;49.008;12.106;2023-02-21T12:55:39;1.90;;;1.80;;
45905;SDS011;31619;49.008;12.106;2023-02-21T13:01:18;2.20;;;2.00;;
45905;SDS011;31619;49.008;12.106;2023-02-21T13:06:37;1.90;;;1.80;;
45905;SDS011;31619;49.008;12.106;2023-02-21T13:09:38;2.03;;;1.90;;
45905;SDS011;31619;49.008;12.106;2023-02-21T13:12:17;1.98;;;1.88;;
45905;SDS011;31619;49.008;12.106;2023-02-21T13:14:54;2.03;;;1.83;;
45905;SDS011;31619;49.008;12.106;2023-02-21T13:17:26;2.50;;;2.30;;
45905;SDS011;31619;49.008;12.106;2023-02-21T13:20:00;1.75;;;1.40;;
45905;SDS011;31619;49.008;12.106;2023-02-21T13:26:05;1.65;;;1.30;;
45905;SDS011;31619;49.008;12.106;2023-02-21T13:28:40;1.50;;;1.45;;
45905;SDS011;31619;49.008;12.106;2023-02-21T13:31:16;1.55;;;1.40;;
45905;SDS011;31619;49.008;12.106;2023-02-21T13:33:51;1.63;;;1.52;;
45905;SDS011;31619;49.008;12.106;2023-02-21T13:36:31;1.90;;;1.80;;
45905;SDS011;31619;49.008;12.106;2023-02-21T13:41:41;2.33;;;1.60;;
45905;SDS011;31619;49.008;12.106;2023-02-21T13:47:01;1.50;;;1.40;;
45905;SDS011;31619;49.008;12.106;2023-02-21T13:57:33;1.38;;;1.38;;
45905;SDS011;31619;49.008;12.106;2023-02-21T14:11:10;1.00;;;1.00;;
45905;SDS011;31619;49.008;12.106;2023-02-21T14:13:46;1.23;;;1.13;;
45905;SDS011;31619;49.008;12.106;2023-02-21T14:16:22;2.60;;;1.13;;
45905;SDS011;31619;49.008;12.106;2023-02-21T14:37:29;2.45;;;1.45;;
45905;SDS011;31619;49.008;12.106;2023-02-21T14:45:45;2.40;;;1.23;;
45905;SDS011;31619;49.008;12.106;2023-02-21T14:59:29;1.30;;;1.20;;
45905;SDS011;31619;49.008;12.106;2023-02-21T15:04:58;1.10;;;1.08;;
45905;SDS011;31619;49.008;12.106;2023-02-21T15:07:55;2.30;;;1.63;;
45905;SDS011;31619;49.008;12.106;2023-02-21T15:10:29;1.35;;;1.27;;
45905;SDS011;31619;49.008;12.106;2023-02-21T15:13:00;3.13;;;1.60;;
45905;SDS011;31619;49.008;12.106;2023-02-21T15:15:29;1.98;;;1.88;;
45905;SDS011;31619;49.008;12.106;2023-02-21T15:18:09;1.48;;;1.40;;
45905;SDS011;31619;49.008;12.106;2023-02-21T15:20:51;1.73;;;1.38;;
45905;SDS011;31619;49.008;12.106;2023-02-21T15:23:31;1.08;;;1.05;;
45905;SDS011;31619;49.008;12.106;2023-02-21T15:25:58;2.63;;;0.95;;
45905;SDS011;31619;49.008;12.106;2023-02-21T15:28:27;1.38;;;1.27;;
45905;SDS011;31619;49.008;12.106;2023-02-21T15:30:56;1.17;;;1.08;;
45905;SDS011;31619;49.008;12.106;2023-02-21T15:33:35;2.15;;;1.20;;
45905;SDS011;31619;49.008;12.106;2023-02-21T15:36:04;1.45;;;1.35;;
45905;SDS011;31619;49.008;12.106;2023-02-21T15:38:34;1.20;;;1.20;;
45905;SDS011;31619;49.008;12.106;2023-02-21T15:46:31;1.52;;;1.40;;
45905;SDS011;31619;49.008;12.106;2023-02-21T15:49:08;4.28;;;1.77;;
45905;SDS011;31619;49.008;12.106;2023-02-21T15:51:41;2.35;;;1.38;;
45905;SDS011;31619;49.008;12.106;2023-02-21T15:54:21;3.13;;;1.70;;
45905;SDS011;31619;49.008;12.106;2023-02-21T15:57:02;2.60;;;1.40;;
45905;SDS011;31619;49.008;12.106;2023-02-21T15:59:35;4.05;;;1.58;;
45905;SDS011;31619;49.008;12.106;2023-02-21T16:04:35;3.15;;;2.10;;
45905;SDS011;31619;49.008;12.106;2023-02-21T16:07:01;2.05;;;1.80;;
45905;SDS011;31619;49.008;12.106;2023-02-21T16:09:31;1.52;;;1.42;;
45905;SDS011;31619;49.008;12.106;2023-02-21T16:14:37;2.17;;;1.80;;
45905;SDS011;31619;49.008;12.106;2023-02-21T16:19:52;2.33;;;2.05;;
45905;SDS011;31619;49.008;12.106;2023-02-21T16:27:35;2.30;;;2.10;;
45905;SDS011;31619;49.008;12.106;2023-02-21T16:30:06;4.70;;;2.90;;
45905;SDS011;31619;49.008;12.106;2023-02-21T16:32:35;3.65;;;2.78;;
45905;SDS011;31619;49.008;12.106;2023-02-21T16:35:03;5.07;;;2.47;;
45905;SDS011;31619;49.008;12.106;2023-02-21T16:37:30;2.50;;;2.30;;
45905;SDS011;31619;49.008;12.106;2023-02-21T16:39:56;2.38;;;2.28;;
45905;SDS011;31619;49.008;12.106;2023-02-21T16:42:21;5.30;;;3.15;;
45905;SDS011;31619;49.008;12.106;2023-02-21T16:44:47;3.20;;;2.10;;
45905;SDS011;31619;49.008;12.106;2023-02-21T16:47:14;2.47;;;2.28;;
45905;SDS011;31619;49.008;12.106;2023-02-21T16:49:40;2.80;;;2.45;;
45905;SDS011;31619;49.008;12.106;2023-02-21T16:52:16;4.78;;;2.90;;
45905;SDS011;31619;49.008;12.106;2023-02-21T16:54:41;5.05;;;2.75;;
45905;SDS011;31619;49.008;12.106;2023-02-21T16:57:08;3.70;;;3.40;;
45905;SDS011;31619;49.008;12.106;2023-02-21T16:59:35;4.45;;;3.30;;
45905;SDS011;31619;49.008;12.106;2023-02-21T17:02:01;4.68;;;3.33;;
45905;SDS011;31619;49.008;12.106;2023-02-21T17:04:28;4.78;;;4.07;;
45905;SDS011;31619;49.008;12.106;2023-02-21T17:06:58;3.50;;;3.20;;
45905;SDS011;31619;49.008;12.106;2023-02-21T17:09:28;4.05;;;3.75;;
45905;SDS011;31619;49.008;12.106;2023-02-21T17:11:57;5.78;;;3.67;;
45905;SDS011;31619;49.008;12.106;2023-02-21T17:14:24;5.18;;;3.40;;
45905;SDS011;31619;49.008;12.106;2023-02-21T17:16:50;3.75;;;3.03;;
45905;SDS011;31619;49.008;12.106;2023-02-21T17:19:16;6.60;;;4.53;;
45905;SDS011;31619;49.008;12.106;2023-02-21T17:21:44;4.13;;;3.67;;
45905;SDS011;31619;49.008;12.106;2023-02-21T17:24:11;5.55;;;3.83;;
45905;SDS011;31619;49.008;12.106;2023-02-21T17:26:38;4.57;;;4.18;;
45905;SDS011;31619;49.008;12.106;2023-02-21T17:29:04;5.88;;;5.28;;
45905;SDS011;31619;49.008;12.106;2023-02-21T17:31:30;7.95;;;7.13;;
45905;SDS011;31619;49.008;12.106;2023-02-21T17:33:56;6.88;;;5.45;;
45905;SDS011;31619;49.008;12.106;2023-02-21T17:36:23;6.90;;;6.25;;
45905;SDS011;31619;49.008;12.106;2023-02-21T17:38:50;6.50;;;5.60;;
45905;SDS011;31619;49.008;12.106;2023-02-21T17:41:16;7.93;;;6.97;;
45905;SDS011;31619;49.008;12.106;2023-02-21T17:43:43;7.45;;;6.80;;
45905;SDS011;31619;49.008;12.106;2023-02-21T17:46:10;7.38;;;6.40;;
45905;SDS011;31619;49.008;12.106;2023-02-21T17:48:37;5.60;;;5.07;;